createdAt,value
2022-08-02T00:00:10.930Z,0.20
2022-08-02T00:02:37.838Z,0.20
2022-08-02T00:05:04.813Z,0.20
2022-08-02T00:07:31.156Z,0.20
2022-08-02T00:09:57.612Z,0.28
2022-08-02T00:12:23.942Z,0.25
2022-08-02T00:14:50.360Z,0.40
2022-08-02T00:17:16.876Z,0.30
2022-08-02T00:19:43.856Z,0.20
2022-08-02T00:22:10.902Z,0.30
2022-08-02T00:24:37.872Z,0.10
2022-08-02T00:27:05.009Z,0.40
2022-08-02T00:29:36.147Z,0.20
2022-08-02T00:32:16.917Z,0.15
2022-08-02T00:34:43.229Z,0.10
2022-08-02T00:37:09.617Z,0.10
2022-08-02T00:39:36.720Z,0.13
2022-08-02T00:42:03.164Z,0.17
2022-08-02T00:44:29.512Z,0.10
2022-08-02T00:46:55.998Z,0.10
2022-08-02T00:49:22.479Z,0.30
2022-08-02T00:51:49.008Z,0.68
2022-08-02T00:54:15.391Z,0.93
2022-08-02T00:56:49.724Z,0.70
2022-08-02T00:59:18.038Z,0.70
2022-08-02T01:01:57.385Z,0.50
2022-08-02T01:04:29.826Z,0.50
2022-08-02T01:06:57.203Z,0.50
2022-08-02T01:09:23.545Z,0.40
2022-08-02T01:11:50.041Z,0.32
2022-08-02T01:14:16.510Z,0.30
2022-08-02T01:16:52.314Z,0.30
2022-08-02T01:19:24.739Z,0.20
2022-08-02T01:22:13.863Z,0.20
2022-08-02T01:24:43.293Z,0.20
2022-08-02T01:27:09.597Z,0.30
2022-08-02T01:29:39.905Z,0.30
2022-08-02T01:32:13.104Z,0.30
2022-08-02T01:34:41.150Z,0.30
2022-08-02T01:37:10.878Z,0.40
2022-08-02T01:39:38.061Z,0.50
2022-08-02T01:42:05.327Z,1.10
2022-08-02T01:44:33.659Z,0.60
2022-08-02T01:47:02.012Z,0.50
2022-08-02T01:49:30.148Z,0.30
2022-08-02T01:52:17.174Z,0.40
2022-08-02T01:54:44.964Z,0.30
2022-08-02T01:57:12.958Z,0.20
2022-08-02T01:59:40.129Z,0.20
2022-08-02T02:02:08.056Z,0.10
2022-08-02T02:04:35.386Z,0.10
2022-08-02T02:07:01.937Z,0.20
2022-08-02T02:09:29.675Z,0.20
2022-08-02T02:12:14.188Z,0.20
2022-08-02T02:14:42.646Z,0.10
2022-08-02T02:18:10.487Z,0.10
2022-08-02T02:20:05.411Z,0.40
2022-08-02T02:22:32.217Z,0.20
2022-08-02T02:24:58.745Z,0.40
2022-08-02T02:27:25.377Z,0.50
2022-08-02T02:29:53.111Z,0.50
2022-08-02T02:32:21.193Z,0.28
2022-08-02T02:34:49.852Z,0.22
2022-08-02T02:37:18.991Z,0.20
2022-08-02T02:39:45.775Z,0.20
2022-08-02T02:42:14.203Z,0.20
2022-08-02T02:44:40.892Z,0.20
2022-08-02T02:47:08.282Z,0.43
2022-08-02T02:49:35.641Z,0.32
2022-08-02T02:52:03.076Z,0.40
2022-08-02T02:54:34.224Z,0.40
2022-08-02T02:57:02.535Z,0.30
2022-08-02T02:59:29.001Z,0.30
2022-08-02T03:01:57.878Z,0.55
2022-08-02T03:04:27.001Z,0.30
2022-08-02T03:06:53.477Z,0.40
2022-08-02T03:09:19.901Z,0.15
2022-08-02T03:11:46.364Z,0.30
2022-08-02T03:14:13.281Z,0.70
2022-08-02T03:16:43.764Z,0.50
2022-08-02T03:19:10.233Z,0.40
2022-08-02T03:21:36.577Z,0.30
2022-08-02T03:24:03.114Z,0.20
2022-08-02T03:26:29.583Z,0.20
2022-08-02T03:28:56.005Z,0.10
2022-08-02T03:31:22.323Z,0.10
2022-08-02T03:33:49.284Z,0.10
2022-08-02T03:36:17.575Z,0.40
2022-08-02T03:38:44.903Z,0.40
2022-08-02T03:41:12.809Z,0.20
2022-08-02T03:43:39.989Z,0.30
2022-08-02T03:46:07.740Z,0.40
2022-08-02T03:48:35.584Z,0.70
2022-08-02T03:51:02.172Z,0.80
2022-08-02T03:53:28.897Z,0.73
2022-08-02T03:55:56.019Z,0.70
2022-08-02T03:58:23.123Z,0.50
2022-08-02T04:00:49.933Z,0.45
2022-08-02T04:03:20.018Z,0.47
2022-08-02T04:06:04.160Z,0.40
2022-08-02T04:08:35.837Z,0.30
2022-08-02T04:11:22.529Z,0.45
2022-08-02T04:13:49.836Z,0.40
2022-08-02T04:16:20.030Z,0.60
2022-08-02T04:18:51.420Z,0.50
2022-08-02T04:21:19.322Z,0.43
2022-08-02T04:23:46.050Z,0.30
2022-08-02T04:26:12.878Z,0.30
2022-08-02T04:28:39.793Z,0.20
2022-08-02T04:31:06.797Z,0.17
2022-08-02T04:33:34.453Z,0.10
2022-08-02T04:36:01.004Z,0.20
2022-08-02T04:38:27.367Z,0.20
2022-08-02T04:40:55.330Z,0.50
2022-08-02T04:43:22.185Z,0.60
2022-08-02T04:45:49.904Z,0.40
2022-08-02T04:48:16.395Z,0.40
2022-08-02T04:50:42.951Z,0.43
2022-08-02T04:53:09.330Z,0.40
2022-08-02T04:55:35.763Z,0.40
2022-08-02T04:58:06.682Z,0.68
2022-08-02T05:00:36.318Z,0.40
2022-08-02T05:03:02.760Z,0.40
2022-08-02T05:05:29.134Z,0.40
2022-08-02T05:07:55.520Z,0.30
2022-08-02T05:10:22.337Z,0.38
2022-08-02T05:12:48.698Z,0.20
2022-08-02T05:15:16.739Z,0.13
2022-08-02T05:17:47.714Z,0.20
2022-08-02T05:20:15.328Z,0.10
2022-08-02T05:22:42.206Z,0.10
2022-08-02T05:25:09.097Z,0.10
2022-08-02T05:27:35.437Z,0.10
2022-08-02T05:30:01.957Z,0.17
2022-08-02T05:32:28.304Z,0.10
2022-08-02T05:34:54.672Z,0.10
2022-08-02T05:37:21.024Z,0.10
2022-08-02T05:39:55.433Z,0.10
2022-08-02T05:42:22.938Z,0.10
2022-08-02T05:44:49.300Z,0.10
2022-08-02T05:47:15.642Z,0.20
2022-08-02T05:49:43.296Z,0.10
2022-08-02T05:52:09.854Z,0.13
2022-08-02T05:54:40.557Z,0.10
2022-08-02T05:57:19.468Z,0.00
2022-08-02T05:59:45.774Z,0.10
2022-08-02T06:02:30.211Z,0.03
2022-08-02T06:05:03.370Z,0.00
2022-08-02T06:07:30.341Z,0.00
2022-08-02T06:09:58.029Z,0.10
2022-08-02T06:12:25.498Z,0.10
2022-08-02T06:14:54.552Z,0.00
2022-08-02T06:17:21.411Z,0.10
2022-08-02T06:19:51.466Z,0.10
2022-08-02T06:22:32.650Z,0.10
2022-08-02T06:25:04.626Z,0.10
2022-08-02T06:27:31.856Z,0.20
2022-08-02T06:29:58.310Z,0.20
2022-08-02T06:32:26.566Z,0.10
2022-08-02T06:34:53.065Z,0.10
2022-08-02T06:37:27.582Z,0.10
2022-08-02T06:40:20.553Z,0.20
2022-08-02T06:42:52.467Z,0.10
2022-08-02T06:45:18.863Z,0.10
2022-08-02T06:47:45.670Z,0.10
2022-08-02T06:50:12.063Z,0.10
2022-08-02T06:52:38.480Z,0.10
2022-08-02T06:55:05.707Z,0.10
2022-08-02T06:57:32.817Z,0.50
2022-08-02T07:00:02.322Z,0.60
2022-08-02T07:02:29.481Z,0.50
2022-08-02T07:04:55.872Z,0.60
2022-08-02T07:07:22.330Z,0.68
2022-08-02T07:10:00.373Z,0.77
2022-08-02T07:12:32.190Z,0.80
2022-08-02T07:14:59.637Z,0.60
2022-08-02T07:17:26.191Z,0.93
2022-08-02T07:19:52.524Z,0.70
2022-08-02T07:22:20.259Z,0.90
2022-08-02T07:24:46.602Z,0.70
2022-08-02T07:27:13.517Z,0.50
2022-08-02T07:29:46.055Z,0.75
2022-08-02T07:32:15.000Z,1.08
2022-08-02T07:34:42.474Z,1.08
2022-08-02T07:37:11.222Z,0.55
2022-08-02T07:39:56.004Z,0.70
2022-08-02T07:42:22.973Z,0.88
2022-08-02T07:44:49.422Z,0.70
2022-08-02T07:47:15.959Z,0.50
2022-08-02T07:49:42.276Z,1.00
2022-08-02T07:52:09.079Z,0.45
2022-08-02T07:54:35.695Z,0.40
2022-08-02T07:57:02.192Z,1.00
2022-08-02T07:59:28.594Z,0.98
2022-08-02T08:01:55.006Z,1.00
2022-08-02T08:04:21.443Z,0.50
2022-08-02T08:06:52.743Z,0.82
2022-08-02T08:09:19.478Z,0.30
2022-08-02T08:11:46.029Z,0.30
2022-08-02T08:14:16.705Z,0.20
2022-08-02T08:16:43.436Z,0.20
2022-08-02T08:19:09.846Z,0.15
2022-08-02T08:21:36.164Z,0.20
2022-08-02T08:24:04.822Z,0.30
2022-08-02T08:26:31.238Z,0.75
2022-08-02T08:28:57.614Z,0.98
2022-08-02T08:31:24.070Z,0.90
2022-08-02T08:33:50.457Z,0.82
2022-08-02T08:36:17.073Z,0.80
2022-08-02T08:38:43.544Z,0.75
2022-08-02T08:41:09.878Z,0.65
2022-08-02T08:43:36.870Z,0.77
2022-08-02T08:46:03.596Z,0.40
2022-08-02T08:48:32.617Z,0.20
2022-08-02T08:51:07.685Z,0.40
2022-08-02T08:53:37.582Z,1.08
2022-08-02T08:56:04.199Z,0.70
2022-08-02T08:58:30.555Z,0.70
2022-08-02T09:00:56.945Z,0.77
2022-08-02T09:03:23.433Z,0.50
2022-08-02T09:05:50.052Z,0.70
2022-08-02T09:08:17.056Z,0.60
2022-08-02T09:10:44.888Z,0.43
2022-08-02T09:13:38.472Z,0.40
2022-08-02T09:18:39.830Z,0.57
2022-08-02T09:21:07.114Z,0.40
2022-08-02T09:23:34.655Z,0.30
2022-08-02T09:26:05.728Z,0.50
2022-08-02T09:28:35.482Z,0.35
2022-08-02T09:31:05.018Z,0.55
2022-08-02T09:33:31.614Z,0.65
2022-08-02T09:36:08.657Z,0.80
2022-08-02T09:38:35.804Z,0.50
2022-08-02T09:41:03.504Z,0.32
2022-08-02T09:44:03.144Z,0.20
2022-08-02T09:46:27.242Z,0.20
2022-08-02T09:48:54.602Z,0.63
2022-08-02T09:51:25.169Z,0.40
2022-08-02T09:54:07.964Z,0.70
2022-08-02T09:56:43.201Z,0.70
2022-08-02T09:59:10.119Z,0.80
2022-08-02T10:01:38.988Z,0.90
2022-08-02T10:04:15.734Z,1.00
2022-08-02T10:06:48.656Z,0.90
2022-08-02T10:09:15.489Z,0.70
2022-08-02T10:11:42.471Z,0.50
2022-08-02T10:14:10.613Z,0.20
2022-08-02T10:16:38.594Z,0.22
2022-08-02T10:19:05.191Z,0.38
2022-08-02T10:21:50.683Z,0.80
2022-08-02T10:24:19.151Z,0.70
2022-08-02T10:26:46.861Z,0.85
2022-08-02T10:29:15.885Z,0.68
2022-08-02T10:31:45.205Z,0.50
2022-08-02T10:34:12.899Z,0.30
2022-08-02T10:36:41.064Z,0.80
2022-08-02T10:39:07.521Z,0.70
2022-08-02T10:41:47.646Z,0.70
2022-08-02T10:44:40.364Z,0.45
2022-08-02T10:47:25.109Z,0.40
2022-08-02T10:52:21.447Z,0.50
2022-08-02T10:54:50.714Z,0.40
2022-08-02T10:57:22.493Z,0.30
2022-08-02T10:59:49.846Z,0.20
2022-08-02T11:02:33.048Z,0.20
2022-08-02T11:04:59.354Z,0.40
2022-08-02T11:07:55.170Z,0.43
2022-08-02T11:10:39.670Z,0.50
2022-08-02T11:13:14.230Z,0.40
2022-08-02T11:16:11.643Z,0.40
2022-08-02T11:18:44.252Z,0.50
2022-08-02T11:21:21.931Z,0.70
2022-08-02T11:23:48.543Z,0.90
2022-08-02T11:26:30.241Z,0.60
2022-08-02T11:28:57.325Z,0.70
2022-08-02T11:31:23.663Z,0.98
2022-08-02T11:33:50.730Z,0.70
2022-08-02T11:36:17.526Z,1.08
2022-08-02T11:38:44.240Z,0.70
2022-08-02T11:41:18.507Z,0.88
2022-08-02T11:44:04.829Z,0.60
2022-08-02T11:46:31.402Z,0.90
2022-08-02T11:48:57.829Z,0.70
2022-08-02T11:51:24.850Z,0.30
2022-08-02T11:53:52.355Z,0.68
2022-08-02T11:56:25.766Z,0.75
2022-08-02T11:59:02.037Z,0.57
2022-08-02T12:01:28.561Z,0.35
2022-08-02T12:03:58.732Z,0.40
2022-08-02T12:06:26.030Z,0.60
2022-08-02T12:08:54.770Z,0.50
2022-08-02T12:11:21.346Z,0.40
2022-08-02T12:13:56.691Z,0.22
2022-08-02T12:16:42.518Z,0.50
2022-08-02T12:19:23.268Z,0.40
2022-08-02T12:22:06.802Z,0.30
2022-08-02T12:24:33.190Z,0.30
2022-08-02T12:26:59.509Z,0.40
2022-08-02T12:29:58.751Z,0.75
2022-08-02T12:32:26.387Z,0.50
2022-08-02T12:35:07.871Z,0.30
2022-08-02T12:37:34.478Z,0.57
2022-08-02T12:40:17.409Z,0.40
2022-08-02T12:42:48.189Z,0.30
2022-08-02T12:45:14.533Z,0.60
2022-08-02T12:47:51.722Z,0.73
2022-08-02T12:50:29.817Z,0.50
2022-08-02T12:53:03.817Z,0.50
2022-08-02T12:56:01.874Z,0.20
2022-08-02T12:58:17.943Z,0.65
2022-08-02T13:00:51.614Z,0.40
2022-08-02T13:04:10.851Z,0.20
2022-08-02T13:06:22.849Z,0.65
2022-08-02T13:08:58.626Z,0.98
2022-08-02T13:11:25.365Z,0.77
2022-08-02T13:13:51.794Z,0.95
2022-08-02T13:16:18.362Z,0.65
2022-08-02T13:18:57.291Z,0.40
2022-08-02T13:21:39.698Z,0.50
2022-08-02T13:24:07.187Z,0.47
2022-08-02T13:26:54.217Z,0.70
2022-08-02T13:29:20.642Z,0.70
2022-08-02T13:31:46.962Z,0.60
2022-08-02T13:34:13.482Z,0.50
2022-08-02T13:36:39.858Z,1.00
2022-08-02T13:39:06.263Z,0.98
2022-08-02T13:41:32.738Z,0.60
2022-08-02T13:44:08.947Z,0.65
2022-08-02T13:46:37.867Z,0.63
2022-08-02T13:49:16.302Z,0.50
2022-08-02T13:51:45.172Z,0.40
2022-08-02T13:54:11.503Z,0.20
2022-08-02T13:56:37.833Z,0.30
2022-08-02T13:59:53.906Z,0.30
2022-08-02T14:01:51.284Z,0.35
2022-08-02T14:04:17.794Z,0.40
2022-08-02T14:06:44.284Z,0.30
2022-08-02T14:09:15.534Z,0.55
2022-08-02T14:11:43.286Z,0.20
2022-08-02T14:14:16.649Z,0.47
2022-08-02T14:16:44.403Z,0.20
2022-08-02T14:19:16.471Z,0.10
2022-08-02T14:21:46.536Z,0.50
2022-08-02T14:24:14.350Z,0.38
2022-08-02T14:26:40.669Z,0.30
2022-08-02T14:29:07.016Z,0.60
2022-08-02T14:31:33.468Z,0.30
2022-08-02T14:33:59.856Z,0.30
2022-08-02T14:36:27.644Z,0.20
2022-08-02T14:38:54.797Z,0.57
2022-08-02T14:41:21.119Z,0.50
2022-08-02T14:44:06.080Z,0.40
2022-08-02T14:46:33.193Z,0.60
2022-08-02T14:49:03.586Z,0.35
2022-08-02T14:51:31.280Z,0.50
2022-08-02T14:54:02.876Z,0.50
2022-08-02T14:56:29.725Z,0.30
2022-08-02T14:58:56.102Z,0.50
2022-08-02T15:01:26.218Z,0.90
2022-08-02T15:03:52.911Z,0.70
2022-08-02T15:06:19.414Z,0.30
2022-08-02T15:08:45.749Z,0.55
2022-08-02T15:11:12.129Z,0.50
2022-08-02T15:13:42.248Z,0.40
2022-08-02T15:16:09.062Z,0.32
2022-08-02T15:18:35.386Z,0.30
2022-08-02T15:21:03.867Z,0.20
2022-08-02T15:23:48.157Z,0.50
2022-08-02T15:26:14.554Z,0.80
2022-08-02T15:28:40.875Z,0.90
2022-08-02T15:31:07.205Z,1.45
2022-08-02T15:33:33.599Z,0.98
2022-08-02T15:36:00.009Z,0.63
2022-08-02T15:38:26.351Z,0.90
2022-08-02T15:40:52.698Z,0.90
2022-08-02T15:43:19.101Z,0.60
2022-08-02T15:45:45.418Z,0.60
2022-08-02T15:48:12.251Z,0.40
2022-08-02T15:50:38.591Z,0.40
2022-08-02T15:53:04.909Z,0.40
2022-08-02T15:55:51.928Z,0.30
2022-08-02T15:58:18.049Z,0.30
2022-08-02T16:03:14.996Z,0.30
2022-08-02T16:05:41.453Z,0.10
2022-08-02T16:08:08.278Z,0.70
2022-08-02T16:10:34.814Z,0.65
2022-08-02T16:13:19.792Z,0.30
2022-08-02T16:15:46.159Z,0.30
2022-08-02T16:18:12.494Z,0.30
2022-08-02T16:20:38.874Z,0.10
2022-08-02T16:23:05.213Z,0.20
2022-08-02T16:25:31.541Z,0.20
2022-08-02T16:28:06.928Z,0.10
2022-08-02T16:30:34.311Z,0.20
2022-08-02T16:33:00.904Z,0.17
2022-08-02T16:35:30.142Z,0.13
2022-08-02T16:37:56.580Z,0.10
2022-08-02T16:40:23.203Z,0.10
2022-08-02T16:42:50.991Z,0.10
2022-08-02T16:45:20.143Z,0.30
2022-08-02T16:47:54.863Z,0.15
2022-08-02T16:50:28.975Z,0.25
2022-08-02T16:52:58.883Z,0.20
2022-08-02T16:55:25.975Z,0.10
2022-08-02T16:57:56.870Z,0.63
2022-08-02T17:00:23.652Z,0.30
2022-08-02T17:02:49.990Z,0.40
2022-08-02T17:05:16.399Z,0.47
2022-08-02T17:08:15.682Z,0.50
2022-08-02T17:10:30.334Z,0.20
2022-08-02T17:12:57.297Z,0.30
2022-08-02T17:16:08.587Z,0.30
2022-08-02T17:18:10.628Z,0.10
2022-08-02T17:20:37.101Z,0.20
2022-08-02T17:23:04.006Z,0.20
2022-08-02T17:25:31.876Z,0.10
2022-08-02T17:27:58.820Z,0.10
2022-08-02T17:30:26.895Z,0.10
2022-08-02T17:32:53.818Z,0.10
2022-08-02T17:35:20.167Z,0.10
2022-08-02T17:37:54.513Z,0.20
2022-08-02T17:40:32.984Z,0.10
2022-08-02T17:43:00.014Z,0.20
2022-08-02T17:45:59.289Z,0.20
2022-08-02T17:48:14.962Z,0.20
2022-08-02T17:50:41.399Z,0.10
2022-08-02T17:53:15.401Z,0.10
2022-08-02T17:55:42.760Z,0.30
2022-08-02T17:58:12.478Z,0.13
2022-08-02T18:00:39.145Z,0.10
2022-08-02T18:03:09.977Z,0.10
2022-08-02T18:05:39.830Z,0.10
2022-08-02T18:08:20.516Z,0.08
2022-08-02T18:10:48.031Z,0.00
2022-08-02T18:13:14.836Z,0.10
2022-08-02T18:15:41.274Z,0.08
2022-08-02T18:18:11.896Z,0.00
2022-08-02T18:20:38.213Z,0.10
2022-08-02T18:23:06.162Z,0.10
2022-08-02T18:28:12.291Z,0.00
2022-08-02T18:30:39.302Z,0.10
2022-08-02T18:33:54.430Z,0.00
2022-08-02T18:35:52.394Z,0.00
2022-08-02T18:38:21.841Z,0.10
2022-08-02T18:40:50.795Z,0.00
2022-08-02T18:43:17.827Z,0.00
2022-08-02T18:46:05.075Z,0.10
2022-08-02T18:48:30.839Z,0.10
2022-08-02T18:50:57.310Z,0.00
2022-08-02T18:53:28.170Z,0.00
2022-08-02T18:56:05.997Z,0.00
2022-08-02T18:58:32.720Z,0.10
2022-08-02T19:00:59.489Z,0.10
2022-08-02T19:03:31.734Z,0.20
2022-08-02T19:06:03.886Z,0.20
2022-08-02T19:08:34.818Z,0.15
2022-08-02T19:11:02.847Z,0.30
2022-08-02T19:13:29.455Z,0.30
2022-08-02T19:15:56.239Z,0.20
2022-08-02T19:18:26.825Z,0.20
2022-08-02T19:21:02.883Z,0.28
2022-08-02T19:23:32.105Z,0.10
2022-08-02T19:25:58.732Z,0.10
2022-08-02T19:28:26.784Z,0.10
2022-08-02T19:30:56.940Z,0.10
2022-08-02T19:33:54.544Z,0.10
2022-08-02T19:36:09.917Z,0.10
2022-08-02T19:38:42.045Z,0.10
2022-08-02T19:41:11.606Z,0.10
2022-08-02T19:44:22.976Z,0.10
2022-08-02T19:46:24.760Z,0.10
2022-08-02T19:48:51.324Z,0.20
2022-08-02T19:51:55.138Z,0.08
2022-08-02T19:54:04.340Z,0.03
2022-08-02T19:56:31.097Z,0.10
2022-08-02T19:59:00.650Z,0.00
2022-08-02T20:01:38.333Z,0.10
2022-08-02T20:04:07.653Z,0.20
2022-08-02T20:06:42.644Z,0.30
2022-08-02T20:09:12.887Z,0.50
2022-08-02T20:11:43.468Z,0.40
2022-08-02T20:14:09.790Z,0.50
2022-08-02T20:16:39.664Z,0.20
2022-08-02T20:19:08.315Z,0.20
2022-08-02T20:21:36.520Z,0.13
2022-08-02T20:24:04.390Z,0.03
2022-08-02T20:26:31.488Z,0.10
2022-08-02T20:29:02.441Z,0.00
2022-08-02T20:31:29.854Z,0.00
2022-08-02T20:33:56.868Z,0.10
2022-08-02T20:36:23.556Z,0.00
2022-08-02T20:38:50.295Z,0.00
2022-08-02T20:41:20.223Z,0.00
2022-08-02T20:46:14.386Z,0.00
2022-08-02T20:48:41.368Z,0.10
2022-08-02T20:51:09.533Z,0.00
2022-08-02T20:53:54.660Z,0.17
2022-08-02T20:56:21.560Z,0.10
2022-08-02T20:58:47.911Z,0.03
2022-08-02T21:01:18.945Z,0.10
2022-08-02T21:03:58.438Z,0.10
2022-08-02T21:06:25.849Z,0.17
2022-08-02T21:08:54.717Z,0.00
2022-08-02T21:11:25.227Z,0.00
2022-08-02T21:14:07.628Z,0.00
2022-08-02T21:16:35.494Z,0.00
2022-08-02T21:19:02.064Z,0.10
2022-08-02T21:21:29.560Z,0.10
2022-08-02T21:23:56.282Z,0.00
2022-08-02T21:26:28.279Z,0.00
2022-08-02T21:28:57.987Z,0.00
2022-08-02T21:31:29.808Z,0.00
2022-08-02T21:34:00.388Z,0.00
2022-08-02T21:39:14.601Z,0.30
2022-08-02T21:41:46.281Z,0.32
2022-08-02T21:44:17.778Z,0.10
2022-08-02T21:46:45.147Z,0.20
2022-08-02T21:49:12.478Z,0.10
2022-08-02T21:51:39.812Z,0.17
2022-08-02T21:54:18.846Z,0.10
2022-08-02T21:56:50.263Z,0.15
2022-08-02T21:59:19.390Z,0.08
2022-08-02T22:01:53.847Z,0.10
2022-08-02T22:04:21.271Z,0.00
2022-08-02T22:06:49.119Z,0.10
2022-08-02T22:09:17.789Z,0.10
2022-08-02T22:12:03.138Z,0.00
2022-08-02T22:14:29.601Z,0.10
2022-08-02T22:16:56.117Z,0.00
2022-08-02T22:19:22.731Z,0.10
2022-08-02T22:21:54.836Z,0.10
2022-08-02T22:24:30.043Z,0.10
2022-08-02T22:26:57.268Z,0.10
2022-08-02T22:29:23.585Z,0.10
2022-08-02T22:31:49.975Z,0.10
2022-08-02T22:34:37.005Z,0.00
2022-08-02T22:37:06.012Z,0.10
2022-08-02T22:39:33.880Z,0.00
2022-08-02T22:42:06.534Z,0.10
2022-08-02T22:44:44.568Z,0.00
2022-08-02T22:47:14.775Z,0.00
2022-08-02T22:49:51.889Z,0.10
2022-08-02T22:52:22.421Z,0.10
2022-08-02T22:54:49.152Z,0.08
2022-08-02T22:57:17.490Z,0.10
2022-08-02T22:59:03.125Z,0.20
2022-08-02T22:59:57.357Z,0.10
2022-08-02T23:02:25.157Z,0.20
2022-08-02T23:04:51.708Z,0.10
2022-08-02T23:07:18.168Z,0.00
2022-08-02T23:09:44.490Z,0.00
2022-08-02T23:12:10.814Z,0.00
2022-08-02T23:14:37.154Z,0.00
2022-08-02T23:17:22.209Z,0.10
2022-08-02T23:19:51.450Z,0.00
2022-08-02T23:22:18.533Z,0.10
2022-08-02T23:24:46.031Z,0.00
2022-08-02T23:27:12.572Z,0.00
2022-08-02T23:29:38.960Z,0.13
2022-08-02T23:32:05.383Z,0.20
2022-08-02T23:34:33.238Z,0.03
2022-08-02T23:36:59.970Z,0.10
2022-08-02T23:39:26.337Z,0.10
2022-08-02T23:41:55.036Z,0.15
2022-08-02T23:44:21.913Z,0.10
2022-08-02T23:46:48.264Z,0.13
2022-08-02T23:49:15.733Z,0.20
2022-08-02T23:51:42.303Z,0.20
2022-08-02T23:54:09.174Z,0.10
2022-08-02T23:56:35.768Z,0.10
2022-08-02T23:59:02.160Z,0.20
